sensor_id;sensor_type;location;lat;lon;timestamp;temperature;humidity
16263;DHT22;8239;48.594;8.598;2023-05-10T00:02:21;11.40;99.90
16263;DHT22;8239;48.594;8.598;2023-05-10T00:04:48;11.40;99.90
16263;DHT22;8239;48.594;8.598;2023-05-10T00:07:15;11.40;99.90
16263;DHT22;8239;48.594;8.598;2023-05-10T00:09:43;11.40;99.90
16263;DHT22;8239;48.594;8.598;2023-05-10T00:12:11;11.30;99.90
16263;DHT22;8239;48.594;8.598;2023-05-10T00:14:38;11.30;99.90
16263;DHT22;8239;48.594;8.598;2023-05-10T00:17:05;11.20;99.90
16263;DHT22;8239;48.594;8.598;2023-05-10T00:19:32;11.20;99.90
16263;DHT22;8239;48.594;8.598;2023-05-10T00:21:59;11.10;99.90
16263;DHT22;8239;48.594;8.598;2023-05-10T00:24:27;11.10;99.90
16263;DHT22;8239;48.594;8.598;2023-05-10T00:26:54;11.10;99.90
16263;DHT22;8239;48.594;8.598;2023-05-10T00:29:22;11.00;99.90
16263;DHT22;8239;48.594;8.598;2023-05-10T00:31:49;11.00;99.90
16263;DHT22;8239;48.594;8.598;2023-05-10T00:34:16;11.00;99.90
16263;DHT22;8239;48.594;8.598;2023-05-10T00:36:43;11.00;99.90
16263;DHT22;8239;48.594;8.598;2023-05-10T00:39:10;11.00;99.90
16263;DHT22;8239;48.594;8.598;2023-05-10T00:41:37;11.00;99.90
16263;DHT22;8239;48.594;8.598;2023-05-10T00:44:05;11.00;99.90
16263;DHT22;8239;48.594;8.598;2023-05-10T00:46:33;11.00;99.90
16263;DHT22;8239;48.594;8.598;2023-05-10T00:49:01;11.00;99.90
16263;DHT22;8239;48.594;8.598;2023-05-10T00:51:28;10.90;99.90
16263;DHT22;8239;48.594;8.598;2023-05-10T00:53:56;10.90;99.90
16263;DHT22;8239;48.594;8.598;2023-05-10T00:56:24;10.90;99.90
16263;DHT22;8239;48.594;8.598;2023-05-10T00:58:51;10.90;99.90
16263;DHT22;8239;48.594;8.598;2023-05-10T01:01:19;10.90;99.90
16263;DHT22;8239;48.594;8.598;2023-05-10T01:03:48;10.90;99.90
16263;DHT22;8239;48.594;8.598;2023-05-10T01:06:15;10.80;99.90
16263;DHT22;8239;48.594;8.598;2023-05-10T01:08:42;10.80;99.90
16263;DHT22;8239;48.594;8.598;2023-05-10T01:11:09;10.80;99.90
16263;DHT22;8239;48.594;8.598;2023-05-10T01:13:38;10.80;99.90
16263;DHT22;8239;48.594;8.598;2023-05-10T01:16:06;10.80;99.90
16263;DHT22;8239;48.594;8.598;2023-05-10T01:18:34;10.80;99.90
16263;DHT22;8239;48.594;8.598;2023-05-10T01:21:16;10.80;99.90
16263;DHT22;8239;48.594;8.598;2023-05-10T01:24:04;10.80;99.90
16263;DHT22;8239;48.594;8.598;2023-05-10T01:27:13;10.80;99.90
16263;DHT22;8239;48.594;8.598;2023-05-10T01:30:12;10.80;99.90
16263;DHT22;8239;48.594;8.598;2023-05-10T01:32:50;10.80;99.90
16263;DHT22;8239;48.594;8.598;2023-05-10T01:35:26;10.80;99.90
16263;DHT22;8239;48.594;8.598;2023-05-10T01:38:02;10.80;99.90
16263;DHT22;8239;48.594;8.598;2023-05-10T01:40:38;10.70;99.90
16263;DHT22;8239;48.594;8.598;2023-05-10T01:43:10;10.70;99.90
16263;DHT22;8239;48.594;8.598;2023-05-10T01:45:44;10.70;99.90
16263;DHT22;8239;48.594;8.598;2023-05-10T01:48:16;10.70;99.90
16263;DHT22;8239;48.594;8.598;2023-05-10T01:50:45;10.70;99.90
16263;DHT22;8239;48.594;8.598;2023-05-10T01:53:14;10.70;99.90
16263;DHT22;8239;48.594;8.598;2023-05-10T01:55:47;10.70;99.90
16263;DHT22;8239;48.594;8.598;2023-05-10T01:58:17;10.60;99.90
16263;DHT22;8239;48.594;8.598;2023-05-10T02:00:47;10.50;99.90
16263;DHT22;8239;48.594;8.598;2023-05-10T02:03:18;10.40;99.90
16263;DHT22;8239;48.594;8.598;2023-05-10T02:05:48;10.30;99.90
16263;DHT22;8239;48.594;8.598;2023-05-10T02:08:17;10.30;99.90
16263;DHT22;8239;48.594;8.598;2023-05-10T02:10:47;10.30;99.90
16263;DHT22;8239;48.594;8.598;2023-05-10T02:13:16;10.30;99.90
16263;DHT22;8239;48.594;8.598;2023-05-10T02:15:46;10.30;99.90
16263;DHT22;8239;48.594;8.598;2023-05-10T02:18:16;10.30;99.90
16263;DHT22;8239;48.594;8.598;2023-05-10T02:20:45;10.40;99.90
16263;DHT22;8239;48.594;8.598;2023-05-10T02:23:13;10.40;99.90
16263;DHT22;8239;48.594;8.598;2023-05-10T02:25:43;10.40;99.90
16263;DHT22;8239;48.594;8.598;2023-05-10T02:28:11;10.40;99.90
16263;DHT22;8239;48.594;8.598;2023-05-10T02:30:39;10.40;99.90
16263;DHT22;8239;48.594;8.598;2023-05-10T02:33:06;10.40;99.90
16263;DHT22;8239;48.594;8.598;2023-05-10T02:35:36;10.40;99.90
16263;DHT22;8239;48.594;8.598;2023-05-10T02:38:05;10.50;99.90
16263;DHT22;8239;48.594;8.598;2023-05-10T02:40:33;10.50;99.90
16263;DHT22;8239;48.594;8.598;2023-05-10T02:43:02;10.50;99.90
16263;DHT22;8239;48.594;8.598;2023-05-10T02:45:31;10.40;99.90
16263;DHT22;8239;48.594;8.598;2023-05-10T02:47:58;10.40;99.90
16263;DHT22;8239;48.594;8.598;2023-05-10T02:50:27;10.40;99.90
16263;DHT22;8239;48.594;8.598;2023-05-10T02:53:03;10.40;99.90
16263;DHT22;8239;48.594;8.598;2023-05-10T02:55:36;10.40;99.90
16263;DHT22;8239;48.594;8.598;2023-05-10T02:58:04;10.40;99.90
16263;DHT22;8239;48.594;8.598;2023-05-10T03:00:31;10.40;99.90
16263;DHT22;8239;48.594;8.598;2023-05-10T03:02:58;10.40;99.90
16263;DHT22;8239;48.594;8.598;2023-05-10T03:05:26;10.40;99.90
16263;DHT22;8239;48.594;8.598;2023-05-10T03:07:53;10.40;99.90
16263;DHT22;8239;48.594;8.598;2023-05-10T03:10:27;10.40;99.90
16263;DHT22;8239;48.594;8.598;2023-05-10T03:13:07;10.40;99.90
16263;DHT22;8239;48.594;8.598;2023-05-10T03:15:47;10.40;99.90
16263;DHT22;8239;48.594;8.598;2023-05-10T03:18:21;10.40;99.90
16263;DHT22;8239;48.594;8.598;2023-05-10T03:20:51;10.40;99.90
16263;DHT22;8239;48.594;8.598;2023-05-10T03:23:27;10.40;99.90
16263;DHT22;8239;48.594;8.598;2023-05-10T03:25:55;10.40;99.90
16263;DHT22;8239;48.594;8.598;2023-05-10T03:28:25;10.40;99.90
16263;DHT22;8239;48.594;8.598;2023-05-10T03:30:53;10.40;99.90
16263;DHT22;8239;48.594;8.598;2023-05-10T03:33:20;10.40;99.90
16263;DHT22;8239;48.594;8.598;2023-05-10T03:35:48;10.40;99.90
16263;DHT22;8239;48.594;8.598;2023-05-10T03:38:16;10.40;99.90
16263;DHT22;8239;48.594;8.598;2023-05-10T03:40:43;10.40;99.90
16263;DHT22;8239;48.594;8.598;2023-05-10T03:43:11;10.40;99.90
16263;DHT22;8239;48.594;8.598;2023-05-10T03:45:38;10.40;99.90
16263;DHT22;8239;48.594;8.598;2023-05-10T03:48:05;10.40;99.90
16263;DHT22;8239;48.594;8.598;2023-05-10T03:50:32;10.40;99.90
16263;DHT22;8239;48.594;8.598;2023-05-10T03:53:00;10.40;99.90
16263;DHT22;8239;48.594;8.598;2023-05-10T03:55:27;10.40;99.90
16263;DHT22;8239;48.594;8.598;2023-05-10T03:57:55;10.40;99.90
16263;DHT22;8239;48.594;8.598;2023-05-10T04:00:23;10.40;99.90
16263;DHT22;8239;48.594;8.598;2023-05-10T04:02:50;10.30;99.90
16263;DHT22;8239;48.594;8.598;2023-05-10T04:05:18;10.30;99.90
16263;DHT22;8239;48.594;8.598;2023-05-10T04:07:45;10.30;99.90
16263;DHT22;8239;48.594;8.598;2023-05-10T04:10:12;10.30;99.90
16263;DHT22;8239;48.594;8.598;2023-05-10T04:12:39;10.30;99.90
16263;DHT22;8239;48.594;8.598;2023-05-10T04:15:07;10.30;99.90
16263;DHT22;8239;48.594;8.598;2023-05-10T04:17:36;10.30;99.90
16263;DHT22;8239;48.594;8.598;2023-05-10T04:20:04;10.30;99.90
16263;DHT22;8239;48.594;8.598;2023-05-10T04:22:32;10.30;99.90
16263;DHT22;8239;48.594;8.598;2023-05-10T04:24:59;10.30;99.90
16263;DHT22;8239;48.594;8.598;2023-05-10T04:27:26;10.30;99.90
16263;DHT22;8239;48.594;8.598;2023-05-10T04:29:53;10.30;99.90
16263;DHT22;8239;48.594;8.598;2023-05-10T04:32:21;10.30;99.90
16263;DHT22;8239;48.594;8.598;2023-05-10T04:34:49;10.30;99.90
16263;DHT22;8239;48.594;8.598;2023-05-10T04:37:17;10.40;99.90
16263;DHT22;8239;48.594;8.598;2023-05-10T04:39:44;10.40;99.90
16263;DHT22;8239;48.594;8.598;2023-05-10T04:42:11;10.40;99.90
16263;DHT22;8239;48.594;8.598;2023-05-10T04:44:40;10.40;99.90
16263;DHT22;8239;48.594;8.598;2023-05-10T04:47:08;10.40;99.90
16263;DHT22;8239;48.594;8.598;2023-05-10T04:49:35;10.40;99.90
16263;DHT22;8239;48.594;8.598;2023-05-10T04:52:04;10.50;99.90
16263;DHT22;8239;48.594;8.598;2023-05-10T04:54:31;10.50;99.90
16263;DHT22;8239;48.594;8.598;2023-05-10T04:56:58;10.50;99.90
16263;DHT22;8239;48.594;8.598;2023-05-10T04:59:25;10.50;99.90
16263;DHT22;8239;48.594;8.598;2023-05-10T05:01:52;10.60;99.90
16263;DHT22;8239;48.594;8.598;2023-05-10T05:04:19;10.60;99.90
16263;DHT22;8239;48.594;8.598;2023-05-10T05:06:48;10.60;99.90
16263;DHT22;8239;48.594;8.598;2023-05-10T05:09:17;10.70;99.90
16263;DHT22;8239;48.594;8.598;2023-05-10T05:11:44;10.80;99.90
16263;DHT22;8239;48.594;8.598;2023-05-10T05:14:11;10.80;99.90
16263;DHT22;8239;48.594;8.598;2023-05-10T05:16:38;10.80;99.90
16263;DHT22;8239;48.594;8.598;2023-05-10T05:19:05;10.90;99.90
16263;DHT22;8239;48.594;8.598;2023-05-10T05:21:32;10.90;99.90
16263;DHT22;8239;48.594;8.598;2023-05-10T05:23:59;10.90;99.90
16263;DHT22;8239;48.594;8.598;2023-05-10T05:26:28;10.90;99.90
16263;DHT22;8239;48.594;8.598;2023-05-10T05:28:55;10.90;99.90
16263;DHT22;8239;48.594;8.598;2023-05-10T05:31:22;11.00;99.90
16263;DHT22;8239;48.594;8.598;2023-05-10T05:33:49;11.10;99.90
16263;DHT22;8239;48.594;8.598;2023-05-10T05:36:16;11.20;99.90
16263;DHT22;8239;48.594;8.598;2023-05-10T05:38:43;11.20;99.90
16263;DHT22;8239;48.594;8.598;2023-05-10T05:41:10;11.30;99.90
16263;DHT22;8239;48.594;8.598;2023-05-10T05:43:39;11.40;99.90
16263;DHT22;8239;48.594;8.598;2023-05-10T05:46:06;11.50;99.90
16263;DHT22;8239;48.594;8.598;2023-05-10T05:48:33;11.50;99.90
16263;DHT22;8239;48.594;8.598;2023-05-10T05:51:00;11.60;99.90
16263;DHT22;8239;48.594;8.598;2023-05-10T05:53:27;11.70;99.90
16263;DHT22;8239;48.594;8.598;2023-05-10T05:55:55;11.80;99.90
16263;DHT22;8239;48.594;8.598;2023-05-10T05:58:23;11.90;99.90
16263;DHT22;8239;48.594;8.598;2023-05-10T06:00:52;12.00;99.90
16263;DHT22;8239;48.594;8.598;2023-05-10T06:03:19;12.10;99.90
16263;DHT22;8239;48.594;8.598;2023-05-10T06:05:48;12.10;99.90
16263;DHT22;8239;48.594;8.598;2023-05-10T06:08:15;12.10;99.90
16263;DHT22;8239;48.594;8.598;2023-05-10T06:10:42;12.10;99.90
16263;DHT22;8239;48.594;8.598;2023-05-10T06:13:10;12.10;99.90
16263;DHT22;8239;48.594;8.598;2023-05-10T06:15:37;12.10;99.90
16263;DHT22;8239;48.594;8.598;2023-05-10T06:18:06;12.10;99.90
16263;DHT22;8239;48.594;8.598;2023-05-10T06:20:33;12.00;99.90
16263;DHT22;8239;48.594;8.598;2023-05-10T06:23:00;12.00;99.90
16263;DHT22;8239;48.594;8.598;2023-05-10T06:25:27;12.10;99.90
16263;DHT22;8239;48.594;8.598;2023-05-10T06:27:54;12.10;99.90
16263;DHT22;8239;48.594;8.598;2023-05-10T06:30:24;12.20;99.90
16263;DHT22;8239;48.594;8.598;2023-05-10T06:32:53;12.20;99.90
16263;DHT22;8239;48.594;8.598;2023-05-10T06:35:22;12.30;99.90
16263;DHT22;8239;48.594;8.598;2023-05-10T06:37:50;12.40;99.90
16263;DHT22;8239;48.594;8.598;2023-05-10T06:40:18;12.50;99.90
16263;DHT22;8239;48.594;8.598;2023-05-10T06:42:45;12.50;99.90
16263;DHT22;8239;48.594;8.598;2023-05-10T06:45:12;12.60;99.90
16263;DHT22;8239;48.594;8.598;2023-05-10T06:47:40;12.60;99.90
16263;DHT22;8239;48.594;8.598;2023-05-10T06:50:08;12.70;99.90
16263;DHT22;8239;48.594;8.598;2023-05-10T06:52:36;12.70;99.90
16263;DHT22;8239;48.594;8.598;2023-05-10T06:55:04;12.70;99.90
16263;DHT22;8239;48.594;8.598;2023-05-10T06:57:33;12.70;99.90
16263;DHT22;8239;48.594;8.598;2023-05-10T07:00:00;12.70;99.90
16263;DHT22;8239;48.594;8.598;2023-05-10T07:02:27;12.60;99.90
16263;DHT22;8239;48.594;8.598;2023-05-10T07:04:54;12.50;99.90
16263;DHT22;8239;48.594;8.598;2023-05-10T07:07:21;12.40;99.90
16263;DHT22;8239;48.594;8.598;2023-05-10T07:09:49;12.40;99.90
16263;DHT22;8239;48.594;8.598;2023-05-10T07:12:17;12.40;99.90
16263;DHT22;8239;48.594;8.598;2023-05-10T07:14:44;12.50;99.90
16263;DHT22;8239;48.594;8.598;2023-05-10T07:17:11;12.60;99.90
16263;DHT22;8239;48.594;8.598;2023-05-10T07:19:38;12.80;99.90
16263;DHT22;8239;48.594;8.598;2023-05-10T07:22:05;12.90;99.90
16263;DHT22;8239;48.594;8.598;2023-05-10T07:24:33;13.10;99.90
16263;DHT22;8239;48.594;8.598;2023-05-10T07:27:02;13.40;99.90
16263;DHT22;8239;48.594;8.598;2023-05-10T07:29:30;13.50;99.90
16263;DHT22;8239;48.594;8.598;2023-05-10T07:31:57;13.70;99.90
16263;DHT22;8239;48.594;8.598;2023-05-10T07:34:24;14.00;99.90
16263;DHT22;8239;48.594;8.598;2023-05-10T07:36:51;14.10;99.90
16263;DHT22;8239;48.594;8.598;2023-05-10T07:39:19;14.20;99.90
16263;DHT22;8239;48.594;8.598;2023-05-10T07:41:47;14.40;99.90
16263;DHT22;8239;48.594;8.598;2023-05-10T07:44:15;14.60;99.90
16263;DHT22;8239;48.594;8.598;2023-05-10T07:46:44;14.90;99.90
16263;DHT22;8239;48.594;8.598;2023-05-10T07:49:11;15.10;99.90
16263;DHT22;8239;48.594;8.598;2023-05-10T07:51:39;15.50;99.90
16263;DHT22;8239;48.594;8.598;2023-05-10T07:54:06;15.90;99.90
16263;DHT22;8239;48.594;8.598;2023-05-10T07:56:33;16.10;99.90
16263;DHT22;8239;48.594;8.598;2023-05-10T07:59:01;16.30;99.90
16263;DHT22;8239;48.594;8.598;2023-05-10T08:01:32;16.40;99.90
16263;DHT22;8239;48.594;8.598;2023-05-10T08:03:59;16.30;99.90
16263;DHT22;8239;48.594;8.598;2023-05-10T08:06:27;16.20;99.90
16263;DHT22;8239;48.594;8.598;2023-05-10T08:08:55;16.20;99.90
16263;DHT22;8239;48.594;8.598;2023-05-10T08:11:23;16.10;99.90
16263;DHT22;8239;48.594;8.598;2023-05-10T08:13:51;16.00;99.80
16263;DHT22;8239;48.594;8.598;2023-05-10T08:16:18;16.00;99.90
16263;DHT22;8239;48.594;8.598;2023-05-10T08:18:47;16.00;99.60
16263;DHT22;8239;48.594;8.598;2023-05-10T08:21:14;16.10;99.90
16263;DHT22;8239;48.594;8.598;2023-05-10T08:23:42;16.10;99.50
16263;DHT22;8239;48.594;8.598;2023-05-10T08:26:09;16.20;99.40
16263;DHT22;8239;48.594;8.598;2023-05-10T08:28:36;16.40;99.80
16263;DHT22;8239;48.594;8.598;2023-05-10T08:31:04;16.60;99.60
16263;DHT22;8239;48.594;8.598;2023-05-10T08:33:31;16.70;99.60
16263;DHT22;8239;48.594;8.598;2023-05-10T08:35:59;16.70;97.40
16263;DHT22;8239;48.594;8.598;2023-05-10T08:38:26;16.80;96.70
16263;DHT22;8239;48.594;8.598;2023-05-10T08:40:54;16.80;95.10
16263;DHT22;8239;48.594;8.598;2023-05-10T08:43:26;16.80;95.30
16263;DHT22;8239;48.594;8.598;2023-05-10T08:45:55;17.10;95.20
16263;DHT22;8239;48.594;8.598;2023-05-10T08:48:23;17.30;95.00
16263;DHT22;8239;48.594;8.598;2023-05-10T08:50:53;17.70;94.90
16263;DHT22;8239;48.594;8.598;2023-05-10T08:53:24;18.20;93.10
16263;DHT22;8239;48.594;8.598;2023-05-10T08:55:53;18.70;92.90
16263;DHT22;8239;48.594;8.598;2023-05-10T08:58:20;19.00;90.60
16263;DHT22;8239;48.594;8.598;2023-05-10T09:00:49;19.20;90.70
16263;DHT22;8239;48.594;8.598;2023-05-10T09:03:16;19.40;87.20
16263;DHT22;8239;48.594;8.598;2023-05-10T09:05:44;19.50;88.20
16263;DHT22;8239;48.594;8.598;2023-05-10T09:08:12;19.50;87.40
16263;DHT22;8239;48.594;8.598;2023-05-10T09:10:43;19.50;86.60
16263;DHT22;8239;48.594;8.598;2023-05-10T09:13:14;19.70;87.20
16263;DHT22;8239;48.594;8.598;2023-05-10T09:15:42;20.00;85.50
16263;DHT22;8239;48.594;8.598;2023-05-10T09:18:10;20.30;84.10
16263;DHT22;8239;48.594;8.598;2023-05-10T09:20:37;20.50;83.30
16263;DHT22;8239;48.594;8.598;2023-05-10T09:23:04;20.90;83.60
16263;DHT22;8239;48.594;8.598;2023-05-10T09:25:31;21.00;78.20
16263;DHT22;8239;48.594;8.598;2023-05-10T09:28:00;21.00;78.20
16263;DHT22;8239;48.594;8.598;2023-05-10T09:30:28;21.20;78.30
16263;DHT22;8239;48.594;8.598;2023-05-10T09:32:57;21.10;75.10
16263;DHT22;8239;48.594;8.598;2023-05-10T09:35:25;20.90;75.30
16263;DHT22;8239;48.594;8.598;2023-05-10T09:37:54;20.50;73.30
16263;DHT22;8239;48.594;8.598;2023-05-10T09:40:22;20.00;76.20
16263;DHT22;8239;48.594;8.598;2023-05-10T09:42:54;19.70;76.70
16263;DHT22;8239;48.594;8.598;2023-05-10T09:45:30;19.30;77.40
16263;DHT22;8239;48.594;8.598;2023-05-10T09:47:59;18.80;80.30
16263;DHT22;8239;48.594;8.598;2023-05-10T09:50:27;18.20;81.70
16263;DHT22;8239;48.594;8.598;2023-05-10T09:52:56;17.50;82.70
16263;DHT22;8239;48.594;8.598;2023-05-10T09:55:39;16.70;86.30
16263;DHT22;8239;48.594;8.598;2023-05-10T09:58:06;15.90;90.50
16263;DHT22;8239;48.594;8.598;2023-05-10T10:00:38;15.40;91.80
16263;DHT22;8239;48.594;8.598;2023-05-10T10:03:13;14.90;93.20
16263;DHT22;8239;48.594;8.598;2023-05-10T10:05:42;14.50;94.40
16263;DHT22;8239;48.594;8.598;2023-05-10T10:08:09;14.20;96.30
16263;DHT22;8239;48.594;8.598;2023-05-10T10:10:37;14.00;97.30
16263;DHT22;8239;48.594;8.598;2023-05-10T10:13:06;13.90;97.70
16263;DHT22;8239;48.594;8.598;2023-05-10T10:15:33;13.80;98.80
16263;DHT22;8239;48.594;8.598;2023-05-10T10:18:05;13.70;99.50
16263;DHT22;8239;48.594;8.598;2023-05-10T10:20:33;13.80;99.90
16263;DHT22;8239;48.594;8.598;2023-05-10T10:23:00;13.90;99.90
16263;DHT22;8239;48.594;8.598;2023-05-10T10:25:27;14.10;99.90
16263;DHT22;8239;48.594;8.598;2023-05-10T10:28:07;14.30;99.90
16263;DHT22;8239;48.594;8.598;2023-05-10T10:30:41;14.60;99.90
16263;DHT22;8239;48.594;8.598;2023-05-10T10:33:30;14.90;99.40
16263;DHT22;8239;48.594;8.598;2023-05-10T10:36:02;15.20;98.90
16263;DHT22;8239;48.594;8.598;2023-05-10T10:38:37;15.60;99.00
16263;DHT22;8239;48.594;8.598;2023-05-10T10:41:10;15.90;98.90
16263;DHT22;8239;48.594;8.598;2023-05-10T10:43:37;16.50;98.60
16263;DHT22;8239;48.594;8.598;2023-05-10T10:46:10;16.80;94.90
16263;DHT22;8239;48.594;8.598;2023-05-10T10:48:39;17.00;94.30
16263;DHT22;8239;48.594;8.598;2023-05-10T10:51:07;17.20;94.30
16263;DHT22;8239;48.594;8.598;2023-05-10T10:53:34;17.40;91.90
16263;DHT22;8239;48.594;8.598;2023-05-10T10:56:08;17.40;91.60
16263;DHT22;8239;48.594;8.598;2023-05-10T10:58:36;17.40;91.20
16263;DHT22;8239;48.594;8.598;2023-05-10T11:01:11;17.80;91.90
16263;DHT22;8239;48.594;8.598;2023-05-10T11:03:40;18.30;89.30
16263;DHT22;8239;48.594;8.598;2023-05-10T11:06:07;18.90;89.90
16263;DHT22;8239;48.594;8.598;2023-05-10T11:08:41;19.50;84.90
16263;DHT22;8239;48.594;8.598;2023-05-10T11:11:09;19.80;82.10
16263;DHT22;8239;48.594;8.598;2023-05-10T11:13:40;19.80;80.70
16263;DHT22;8239;48.594;8.598;2023-05-10T11:16:15;19.70;75.60
16263;DHT22;8239;48.594;8.598;2023-05-10T11:18:56;19.10;74.60
16263;DHT22;8239;48.594;8.598;2023-05-10T11:21:24;18.50;76.30
16263;DHT22;8239;48.594;8.598;2023-05-10T11:23:52;18.10;79.30
16263;DHT22;8239;48.594;8.598;2023-05-10T11:26:22;17.80;82.60
16263;DHT22;8239;48.594;8.598;2023-05-10T11:28:52;17.70;81.30
16263;DHT22;8239;48.594;8.598;2023-05-10T11:31:21;17.40;80.30
16263;DHT22;8239;48.594;8.598;2023-05-10T11:33:51;16.90;81.90
16263;DHT22;8239;48.594;8.598;2023-05-10T11:36:20;16.50;84.10
16263;DHT22;8239;48.594;8.598;2023-05-10T11:38:48;16.30;87.50
16263;DHT22;8239;48.594;8.598;2023-05-10T11:41:17;16.20;89.00
16263;DHT22;8239;48.594;8.598;2023-05-10T11:43:46;16.30;89.80
16263;DHT22;8239;48.594;8.598;2023-05-10T11:46:14;16.40;90.20
16263;DHT22;8239;48.594;8.598;2023-05-10T11:48:42;16.40;90.20
16263;DHT22;8239;48.594;8.598;2023-05-10T11:51:10;16.40;89.70
16263;DHT22;8239;48.594;8.598;2023-05-10T11:53:39;16.30;89.20
16263;DHT22;8239;48.594;8.598;2023-05-10T11:56:06;16.20;88.50
16263;DHT22;8239;48.594;8.598;2023-05-10T11:58:35;16.10;89.90
16263;DHT22;8239;48.594;8.598;2023-05-10T12:01:04;16.00;88.30
16263;DHT22;8239;48.594;8.598;2023-05-10T12:03:32;15.70;87.20
16263;DHT22;8239;48.594;8.598;2023-05-10T12:06:01;15.50;89.00
16263;DHT22;8239;48.594;8.598;2023-05-10T12:08:31;15.30;90.20
16263;DHT22;8239;48.594;8.598;2023-05-10T12:11:06;15.00;90.00
16263;DHT22;8239;48.594;8.598;2023-05-10T12:13:38;14.80;90.90
16263;DHT22;8239;48.594;8.598;2023-05-10T12:16:23;14.70;91.50
16263;DHT22;8239;48.594;8.598;2023-05-10T12:18:51;14.70;92.00
16263;DHT22;8239;48.594;8.598;2023-05-10T12:21:19;14.70;91.80
16263;DHT22;8239;48.594;8.598;2023-05-10T12:23:48;14.80;91.90
16263;DHT22;8239;48.594;8.598;2023-05-10T12:26:17;15.00;92.10
16263;DHT22;8239;48.594;8.598;2023-05-10T12:28:45;15.20;93.10
16263;DHT22;8239;48.594;8.598;2023-05-10T12:31:12;15.60;93.40
16263;DHT22;8239;48.594;8.598;2023-05-10T12:33:41;15.90;91.70
16263;DHT22;8239;48.594;8.598;2023-05-10T12:36:09;16.10;90.20
16263;DHT22;8239;48.594;8.598;2023-05-10T12:38:37;16.30;90.30
16263;DHT22;8239;48.594;8.598;2023-05-10T12:41:06;16.30;90.20
16263;DHT22;8239;48.594;8.598;2023-05-10T12:43:35;16.30;90.40
16263;DHT22;8239;48.594;8.598;2023-05-10T12:46:06;16.30;90.20
16263;DHT22;8239;48.594;8.598;2023-05-10T12:48:34;16.50;88.90
16263;DHT22;8239;48.594;8.598;2023-05-10T12:51:01;16.80;89.30
16263;DHT22;8239;48.594;8.598;2023-05-10T12:53:28;17.30;90.00
16263;DHT22;8239;48.594;8.598;2023-05-10T12:55:56;17.80;86.40
16263;DHT22;8239;48.594;8.598;2023-05-10T12:58:23;18.20;83.50
16263;DHT22;8239;48.594;8.598;2023-05-10T13:00:52;18.50;81.60
16263;DHT22;8239;48.594;8.598;2023-05-10T13:03:19;18.80;80.00
16263;DHT22;8239;48.594;8.598;2023-05-10T13:05:46;19.20;77.80
16263;DHT22;8239;48.594;8.598;2023-05-10T13:08:13;19.40;75.90
16263;DHT22;8239;48.594;8.598;2023-05-10T13:10:40;19.80;74.40
16263;DHT22;8239;48.594;8.598;2023-05-10T13:13:08;20.20;75.50
16263;DHT22;8239;48.594;8.598;2023-05-10T13:15:35;20.40;70.70
16263;DHT22;8239;48.594;8.598;2023-05-10T13:18:03;20.40;68.20
16263;DHT22;8239;48.594;8.598;2023-05-10T13:20:30;20.10;70.00
16263;DHT22;8239;48.594;8.598;2023-05-10T13:22:57;19.80;68.70
16263;DHT22;8239;48.594;8.598;2023-05-10T13:25:24;19.40;69.20
16263;DHT22;8239;48.594;8.598;2023-05-10T13:27:51;19.00;66.90
16263;DHT22;8239;48.594;8.598;2023-05-10T13:30:18;18.70;68.80
16263;DHT22;8239;48.594;8.598;2023-05-10T13:32:46;18.40;68.80
16263;DHT22;8239;48.594;8.598;2023-05-10T13:35:14;18.20;70.70
16263;DHT22;8239;48.594;8.598;2023-05-10T13:37:41;18.30;70.70
16263;DHT22;8239;48.594;8.598;2023-05-10T13:40:09;18.30;71.00
16263;DHT22;8239;48.594;8.598;2023-05-10T13:42:36;18.20;69.20
16263;DHT22;8239;48.594;8.598;2023-05-10T13:45:04;18.20;69.10
16263;DHT22;8239;48.594;8.598;2023-05-10T13:47:31;18.10;70.00
16263;DHT22;8239;48.594;8.598;2023-05-10T13:49:58;18.00;70.80
16263;DHT22;8239;48.594;8.598;2023-05-10T13:52:27;17.90;69.10
16263;DHT22;8239;48.594;8.598;2023-05-10T13:54:54;17.70;68.50
16263;DHT22;8239;48.594;8.598;2023-05-10T13:57:22;17.40;69.60
16263;DHT22;8239;48.594;8.598;2023-05-10T13:59:49;17.00;70.40
16263;DHT22;8239;48.594;8.598;2023-05-10T14:02:17;16.80;73.60
16263;DHT22;8239;48.594;8.598;2023-05-10T14:04:44;16.90;76.40
16263;DHT22;8239;48.594;8.598;2023-05-10T14:07:11;17.20;75.80
16263;DHT22;8239;48.594;8.598;2023-05-10T14:09:40;17.60;75.30
16263;DHT22;8239;48.594;8.598;2023-05-10T14:12:07;18.10;74.90
16263;DHT22;8239;48.594;8.598;2023-05-10T14:14:33;18.60;73.40
16263;DHT22;8239;48.594;8.598;2023-05-10T14:17:01;19.00;71.10
16263;DHT22;8239;48.594;8.598;2023-05-10T14:19:27;19.40;70.00
16263;DHT22;8239;48.594;8.598;2023-05-10T14:21:57;19.60;69.60
16263;DHT22;8239;48.594;8.598;2023-05-10T14:24:24;19.80;67.50
16263;DHT22;8239;48.594;8.598;2023-05-10T14:26:53;19.80;67.50
16263;DHT22;8239;48.594;8.598;2023-05-10T14:29:20;19.80;64.20
16263;DHT22;8239;48.594;8.598;2023-05-10T14:31:47;19.70;64.60
16263;DHT22;8239;48.594;8.598;2023-05-10T14:34:14;19.50;67.50
16263;DHT22;8239;48.594;8.598;2023-05-10T14:36:41;19.40;64.20
16263;DHT22;8239;48.594;8.598;2023-05-10T14:39:08;19.40;65.30
16263;DHT22;8239;48.594;8.598;2023-05-10T14:41:38;19.20;63.00
16263;DHT22;8239;48.594;8.598;2023-05-10T14:44:07;18.90;64.70
16263;DHT22;8239;48.594;8.598;2023-05-10T14:46:35;18.80;65.10
16263;DHT22;8239;48.594;8.598;2023-05-10T14:49:02;18.70;66.40
16263;DHT22;8239;48.594;8.598;2023-05-10T14:51:29;18.70;66.60
16263;DHT22;8239;48.594;8.598;2023-05-10T14:53:57;18.90;68.00
16263;DHT22;8239;48.594;8.598;2023-05-10T14:56:24;19.10;67.60
16263;DHT22;8239;48.594;8.598;2023-05-10T14:58:51;19.30;66.50
16263;DHT22;8239;48.594;8.598;2023-05-10T15:01:30;19.40;64.00
16263;DHT22;8239;48.594;8.598;2023-05-10T15:03:58;19.50;64.90
16263;DHT22;8239;48.594;8.598;2023-05-10T15:06:31;19.40;63.70
16263;DHT22;8239;48.594;8.598;2023-05-10T15:08:58;19.30;62.20
16263;DHT22;8239;48.594;8.598;2023-05-10T15:11:25;19.10;62.50
16263;DHT22;8239;48.594;8.598;2023-05-10T15:13:52;18.90;61.40
16263;DHT22;8239;48.594;8.598;2023-05-10T15:16:21;18.60;62.60
16263;DHT22;8239;48.594;8.598;2023-05-10T15:18:48;18.30;61.70
16263;DHT22;8239;48.594;8.598;2023-05-10T15:21:15;18.00;64.20
16263;DHT22;8239;48.594;8.598;2023-05-10T15:23:42;17.80;63.90
16263;DHT22;8239;48.594;8.598;2023-05-10T15:26:09;17.70;66.00
16263;DHT22;8239;48.594;8.598;2023-05-10T15:28:36;17.70;67.40
16263;DHT22;8239;48.594;8.598;2023-05-10T15:31:03;17.50;66.40
16263;DHT22;8239;48.594;8.598;2023-05-10T15:33:31;17.30;65.30
16263;DHT22;8239;48.594;8.598;2023-05-10T15:35:58;16.90;66.40
16263;DHT22;8239;48.594;8.598;2023-05-10T15:38:25;16.60;66.70
16263;DHT22;8239;48.594;8.598;2023-05-10T15:40:56;16.10;68.00
16263;DHT22;8239;48.594;8.598;2023-05-10T15:43:23;15.70;70.80
16263;DHT22;8239;48.594;8.598;2023-05-10T15:45:49;15.50;74.60
16263;DHT22;8239;48.594;8.598;2023-05-10T15:48:17;15.20;74.10
16263;DHT22;8239;48.594;8.598;2023-05-10T15:50:45;15.00;73.20
16263;DHT22;8239;48.594;8.598;2023-05-10T15:53:12;14.90;74.20
16263;DHT22;8239;48.594;8.598;2023-05-10T15:55:39;14.70;75.00